Time;durP1;ratioP1;P1;durP2;ratioP2;P2;SDS_P1;SDS_P2;PMS_P1;PMS_P2;Temp;Humidity;BMP_temperature;BMP_pressure;BME280_temperature;BME280_humidity;BME280_pressure;Samples;Min_cycle;Max_cycle;Signal;HPM_P1;HPM_P2
2022/10/13 00:01:19;;;;;;;12.27;3.90;;;11.50;98.60;;;;;;5051691;28;20048;-73
2022/10/13 00:03:46;;;;;;;9.38;3.97;;;11.50;98.60;;;;;;5066977;28;20371;-73
2022/10/13 00:06:13;;;;;;;11.43;3.97;;;11.50;98.70;;;;;;5051513;28;20025;-73
2022/10/13 00:08:40;;;;;;;13.93;4.20;;;11.50;98.30;;;;;;5066878;28;20339;-73
2022/10/13 00:11:15;;;;;;;12.57;4.35;;;11.50;98.30;;;;;;5051317;28;20041;-72
2022/10/13 00:13:42;;;;;;;10.65;5.03;;;11.50;98.70;;;;;;5051290;28;20041;-73
2022/10/13 00:16:09;;;;;;;6.68;3.80;;;11.50;98.60;;;;;;5050685;28;20037;-74
2022/10/13 00:18:34;;;;;;;6.10;3.80;;;11.50;98.50;;;;;;5050796;28;20040;-73
2022/10/13 00:21:00;;;;;;;10.77;4.28;;;11.50;98.50;;;;;;5050604;28;20033;-73
2022/10/13 00:23:26;;;;;;;10.60;4.80;;;11.40;98.50;;;;;;5066259;28;20458;-73
2022/10/13 00:25:52;;;;;;;9.82;4.85;;;11.50;98.70;;;;;;5051054;28;20025;-72
2022/10/13 00:28:18;;;;;;;11.27;4.43;;;11.50;99.10;;;;;;5050514;28;20033;-72
2022/10/13 00:30:45;;;;;;;13.02;4.75;;;11.50;98.80;;;;;;5050511;28;20092;-73
2022/10/13 00:33:12;;;;;;;144.65;69.18;;;11.50;98.80;;;;;;5050635;28;20120;-73
2022/10/13 00:35:43;;;;;;;57.92;32.00;;;11.60;98.80;;;;;;5065997;28;20102;-73
2022/10/13 00:38:09;;;;;;;18.50;7.43;;;11.60;98.90;;;;;;5051398;28;20029;-72
2022/10/13 00:40:50;;;;;;;8.15;4.47;;;11.70;98.70;;;;;;5066744;28;20029;-73
2022/10/13 00:43:18;;;;;;;13.00;5.00;;;11.60;98.60;;;;;;5066366;28;20033;-73
2022/10/13 00:45:45;;;;;;;15.15;3.97;;;11.70;98.90;;;;;;5050232;28;20104;-74
2022/10/13 00:48:11;;;;;;;11.77;5.05;;;11.70;98.50;;;;;;5050573;28;20075;-73
2022/10/13 00:50:40;;;;;;;8.88;4.30;;;11.70;98.60;;;;;;5050709;28;20025;-72
2022/10/13 00:53:07;;;;;;;12.82;5.35;;;11.70;98.80;;;;;;5051100;28;20057;-73
2022/10/13 00:55:37;;;;;;;12.23;4.35;;;11.70;98.80;;;;;;5049734;28;20555;-74
2022/10/13 00:58:05;;;;;;;12.25;5.45;;;11.80;98.80;;;;;;5049167;28;20124;-74
2022/10/13 01:00:32;;;;;;;11.68;4.70;;;11.80;98.70;;;;;;5065821;28;20040;-73
2022/10/13 01:02:58;;;;;;;8.20;4.80;;;11.80;98.80;;;;;;5065866;28;20108;-74
2022/10/13 01:05:24;;;;;;;10.23;4.10;;;11.80;98.90;;;;;;5050241;28;20109;-73
2022/10/13 01:07:52;;;;;;;12.20;4.57;;;11.80;98.60;;;;;;5051018;28;20021;-73
2022/10/13 01:10:42;;;;;;;11.43;4.68;;;11.80;98.60;;;;;;5050006;28;20063;-73
2022/10/13 01:13:21;;;;;;;17.00;5.18;;;11.90;98.80;;;;;;5049948;28;20045;-73
2022/10/13 01:15:59;;;;;;;12.18;4.45;;;11.90;98.80;;;;;;5050267;28;20364;-73
2022/10/13 01:18:42;;;;;;;10.73;4.50;;;11.90;98.30;;;;;;5050078;28;20025;-73
2022/10/13 01:21:25;;;;;;;12.45;5.07;;;11.90;98.80;;;;;;5050275;28;20359;-73
2022/10/13 01:24:12;;;;;;;12.73;4.47;;;11.90;98.50;;;;;;5050312;28;20060;-73
2022/10/13 01:27:00;;;;;;;12.60;4.93;;;11.80;98.70;;;;;;5050517;28;20086;-74
2022/10/13 01:29:53;;;;;;;14.45;4.85;;;11.80;98.80;;;;;;5050173;28;20072;-73
2022/10/13 01:32:25;;;;;;;12.93;5.03;;;11.80;99.00;;;;;;5053048;28;20025;-73
2022/10/13 01:35:10;;;;;;;12.30;4.47;;;11.80;99.10;;;;;;5054523;28;20365;-74
2022/10/13 01:38:06;;;;;;;12.60;4.63;;;11.80;99.00;;;;;;5073132;28;20055;-74
2022/10/13 01:40:41;;;;;;;9.43;4.93;;;11.90;98.90;;;;;;5073931;28;20120;-73
2022/10/13 01:43:17;;;;;;;11.20;4.97;;;11.80;98.90;;;;;;5073987;28;20025;-73
2022/10/13 01:45:57;;;;;;;14.40;4.97;;;11.80;99.00;;;;;;5073773;28;20032;-73
2022/10/13 01:48:24;;;;;;;13.07;5.07;;;11.80;99.10;;;;;;5072905;28;20415;-73
2022/10/13 01:50:51;;;;;;;12.10;4.65;;;11.90;99.10;;;;;;5072727;28;20037;-72
2022/10/13 01:53:19;;;;;;;18.73;6.10;;;11.80;98.80;;;;;;5073067;28;20082;-72
2022/10/13 01:55:53;;;;;;;10.38;4.70;;;11.80;99.10;;;;;;5073644;28;20512;-73
2022/10/13 01:58:20;;;;;;;10.77;5.18;;;11.80;99.20;;;;;;5072368;28;20111;-74
2022/10/13 02:01:25;;;;;;;14.50;5.00;;;11.70;99.10;;;;;;5073448;28;20428;-74
2022/10/13 02:04:03;;;;;;;11.50;4.95;;;11.70;99.30;;;;;;5073526;28;20094;-72
2022/10/13 02:06:44;;;;;;;8.88;4.97;;;11.80;99.10;;;;;;5073478;28;20044;-73
2022/10/13 02:09:22;;;;;;;7.63;4.22;;;11.80;99.10;;;;;;5073748;28;20352;-73
2022/10/13 02:12:02;;;;;;;11.57;5.18;;;11.80;99.40;;;;;;5073982;28;20040;-72
2022/10/13 02:14:31;;;;;;;11.57;5.03;;;11.70;99.50;;;;;;5072950;28;20480;-74
2022/10/13 02:17:01;;;;;;;11.77;5.22;;;11.70;99.50;;;;;;5073384;28;20120;-74
2022/10/13 02:19:28;;;;;;;20.40;5.32;;;11.70;99.40;;;;;;5074356;28;20035;-74
2022/10/13 02:21:56;;;;;;;16.48;6.25;;;11.80;99.30;;;;;;5072704;28;20462;-74
2022/10/13 02:24:22;;;;;;;15.93;5.40;;;11.80;99.60;;;;;;5073624;28;20036;-74
2022/10/13 02:26:49;;;;;;;15.05;5.15;;;11.80;99.40;;;;;;5073324;28;20020;-72
2022/10/13 02:29:16;;;;;;;11.98;5.40;;;11.70;99.30;;;;;;5073951;28;20103;-73
2022/10/13 02:31:43;;;;;;;11.82;4.70;;;11.80;99.70;;;;;;5073163;28;20089;-73
2022/10/13 02:34:09;;;;;;;10.30;5.50;;;11.70;99.60;;;;;;5071930;28;20036;-73
2022/10/13 02:36:37;;;;;;;10.88;4.80;;;11.80;99.50;;;;;;5072792;28;20064;-73
2022/10/13 02:39:04;;;;;;;11.90;5.57;;;11.80;99.40;;;;;;5072364;28;20447;-73
2022/10/13 02:41:30;;;;;;;13.43;5.10;;;11.80;99.70;;;;;;5071723;28;20097;-73
2022/10/13 02:43:56;;;;;;;18.13;5.05;;;11.80;99.70;;;;;;5072903;28;20025;-73
2022/10/13 02:46:21;;;;;;;9.95;5.20;;;11.80;99.50;;;;;;5071512;28;20036;-74
2022/10/13 02:48:47;;;;;;;13.43;5.00;;;11.80;99.70;;;;;;5071391;28;20024;-73
2022/10/13 02:51:13;;;;;;;21.70;5.85;;;11.70;99.70;;;;;;5072507;28;20036;-74
2022/10/13 02:53:38;;;;;;;14.90;4.57;;;11.80;99.80;;;;;;5072871;28;20095;-73
2022/10/13 02:56:05;;;;;;;10.40;5.38;;;11.70;99.90;;;;;;5072900;28;20024;-73
2022/10/13 02:58:30;;;;;;;16.05;5.50;;;11.60;99.80;;;;;;5071325;28;20321;-73
2022/10/13 03:01:07;;;;;;;11.13;5.15;;;11.50;99.80;;;;;;5071156;28;20040;-72
2022/10/13 03:03:33;;;;;;;11.98;5.53;;;11.50;99.90;;;;;;5072322;28;20064;-74
2022/10/13 03:05:58;;;;;;;13.20;4.95;;;11.50;99.90;;;;;;5071135;28;20028;-73
2022/10/13 03:08:24;;;;;;;11.07;5.10;;;11.70;99.90;;;;;;5072335;28;20048;-73
2022/10/13 03:10:49;;;;;;;16.10;4.82;;;11.40;99.80;;;;;;5072796;28;20013;-74
2022/10/13 03:13:15;;;;;;;12.93;5.82;;;11.40;99.70;;;;;;5072280;28;20405;-73
2022/10/13 03:15:41;;;;;;;15.98;5.60;;;11.40;99.90;;;;;;5072075;28;20035;-74
2022/10/13 03:18:09;;;;;;;15.68;5.93;;;11.40;99.90;;;;;;5071246;28;20033;-73
2022/10/13 03:20:35;;;;;;;;;;;11.50;99.90;;;;;;5072363;28;20016;-72
2022/10/13 03:23:01;;;;;;;10.40;5.40;;;11.50;99.90;;;;;;5072501;28;19911;-73
2022/10/13 03:25:27;;;;;;;10.65;5.57;;;11.50;99.90;;;;;;5072277;28;20051;-72
2022/10/13 03:27:55;;;;;;;11.05;5.85;;;11.50;99.90;;;;;;5071979;28;20036;-73
2022/10/13 03:30:20;;;;;;;16.13;5.78;;;11.50;99.90;;;;;;5071968;28;20037;-73
2022/10/13 03:32:46;;;;;;;9.82;5.57;;;11.60;99.90;;;;;;5071791;28;20036;-73
2022/10/13 03:35:12;;;;;;;10.63;5.90;;;11.60;99.90;;;;;;5072280;28;20432;-73
2022/10/13 03:37:38;;;;;;;14.30;7.00;;;11.60;99.90;;;;;;5070876;28;20551;-72
2022/10/13 03:40:04;;;;;;;12.95;5.68;;;11.60;99.90;;;;;;5071782;28;20029;-73
2022/10/13 03:42:29;;;;;;;15.85;6.32;;;11.70;99.90;;;;;;5071713;28;20131;-73
2022/10/13 03:44:55;;;;;;;15.48;6.38;;;11.60;99.90;;;;;;5071657;28;20112;-73
2022/10/13 03:47:21;;;;;;;183.27;95.20;;;11.70;99.90;;;;;;5072082;28;20025;-73
2022/10/13 03:49:46;;;;;;;93.82;48.88;;;11.70;99.90;;;;;;5071533;28;20029;-73
2022/10/13 03:52:12;;;;;;;22.38;10.50;;;11.80;99.90;;;;;;5071671;28;20035;-73
2022/10/13 03:54:38;;;;;;;18.92;6.53;;;11.80;99.90;;;;;;5070722;28;20029;-75
2022/10/13 03:57:03;;;;;;;12.38;6.72;;;11.80;99.90;;;;;;5071289;28;20029;-72
2022/10/13 03:59:29;;;;;;;14.30;5.75;;;11.80;99.90;;;;;;5071516;28;20031;-74
2022/10/13 04:01:55;;;;;;;20.23;7.00;;;11.80;99.90;;;;;;5071732;28;20067;-73
2022/10/13 04:04:20;;;;;;;16.10;6.22;;;11.80;99.90;;;;;;5070999;28;20101;-74
2022/10/13 04:06:46;;;;;;;15.27;6.05;;;11.80;99.90;;;;;;5071265;28;20024;-74
2022/10/13 04:09:12;;;;;;;14.13;6.35;;;11.80;99.90;;;;;;5071367;28;20352;-73
2022/10/13 04:11:38;;;;;;;9.85;6.10;;;11.80;99.90;;;;;;5070962;28;20044;-75
2022/10/13 04:14:06;;;;;;;17.42;7.20;;;11.80;99.90;;;;;;5070519;28;20043;-74
2022/10/13 04:16:32;;;;;;;12.95;7.07;;;11.80;99.90;;;;;;5070068;28;20445;-73
2022/10/13 04:19:01;;;;;;;15.98;6.53;;;11.90;99.90;;;;;;5071266;28;20123;-73
2022/10/13 04:21:28;;;;;;;15.68;6.57;;;11.90;99.90;;;;;;5069663;28;20119;-73
2022/10/13 04:23:56;;;;;;;12.52;6.55;;;11.80;99.90;;;;;;5070863;28;20020;-74
2022/10/13 04:26:23;;;;;;;14.63;6.85;;;11.90;99.90;;;;;;5071338;28;20478;-73
2022/10/13 04:28:51;;;;;;;14.80;7.10;;;11.90;99.90;;;;;;5071128;28;20055;-73
2022/10/13 04:31:17;;;;;;;15.77;7.35;;;11.90;99.90;;;;;;5070959;28;20032;-73
2022/10/13 04:33:43;;;;;;;15.80;6.45;;;11.90;99.90;;;;;;5070607;28;20335;-72
2022/10/13 04:36:11;;;;;;;15.93;6.90;;;11.80;99.90;;;;;;5070698;28;20071;-74
2022/10/13 04:38:37;;;;;;;12.98;7.30;;;11.90;99.90;;;;;;5070644;28;20074;-73
2022/10/13 04:41:04;;;;;;;14.13;7.10;;;11.90;99.90;;;;;;5070137;28;20385;-73
2022/10/13 04:43:31;;;;;;;14.98;6.05;;;11.90;99.90;;;;;;5070805;28;20037;-73
2022/10/13 04:46:05;;;;;;;13.75;6.25;;;11.90;99.90;;;;;;5070696;28;20041;-73
2022/10/13 04:48:31;;;;;;;17.67;7.38;;;11.90;99.90;;;;;;5070843;28;20374;-73
2022/10/13 04:51:05;;;;;;;13.18;7.32;;;11.90;99.90;;;;;;5071205;28;20048;-72
2022/10/13 04:53:31;;;;;;;14.05;7.40;;;11.80;99.90;;;;;;5069791;28;20028;-73
2022/10/13 04:56:07;;;;;;;12.50;6.97;;;11.80;99.90;;;;;;5070979;28;20039;-74
2022/10/13 04:58:33;;;;;;;15.88;7.22;;;11.80;99.90;;;;;;5069858;28;20031;-73
2022/10/13 05:00:59;;;;;;;18.67;7.75;;;11.90;99.90;;;;;;5052784;28;20314;-73
2022/10/13 05:03:25;;;;;;;14.43;6.75;;;11.90;99.90;;;;;;5065960;28;20110;-74
2022/10/13 05:05:51;;;;;;;15.65;7.57;;;11.90;99.90;;;;;;5050568;28;20025;-73
2022/10/13 05:08:17;;;;;;;18.50;7.68;;;11.90;99.90;;;;;;5054929;28;20470;-72
2022/10/13 05:10:55;;;;;;;22.42;8.00;;;11.90;99.90;;;;;;5054653;28;20063;-73
2022/10/13 05:13:21;;;;;;;12.82;7.65;;;11.90;99.90;;;;;;5054487;28;20048;-72
2022/10/13 05:15:47;;;;;;;19.35;7.88;;;11.90;99.90;;;;;;5054441;28;20037;-72
2022/10/13 05:18:13;;;;;;;18.88;8.73;;;11.90;99.90;;;;;;5054445;28;20029;-73
2022/10/13 05:20:38;;;;;;;17.23;8.32;;;12.00;99.90;;;;;;5054375;28;20021;-72
2022/10/13 05:23:04;;;;;;;15.25;8.15;;;11.90;99.90;;;;;;5070389;28;20025;-71
2022/10/13 05:25:30;;;;;;;23.48;9.63;;;11.90;99.90;;;;;;5069772;28;20094;-73
2022/10/13 05:27:56;;;;;;;16.67;8.23;;;11.90;99.90;;;;;;5054540;28;20044;-73
2022/10/13 05:30:21;;;;;;;20.38;9.48;;;11.90;99.90;;;;;;5054168;28;20124;-72
2022/10/13 05:32:47;;;;;;;21.10;8.30;;;11.90;99.90;;;;;;5054021;28;20029;-72
2022/10/13 05:35:12;;;;;;;18.95;8.75;;;11.90;99.90;;;;;;5054832;28;20021;-73
2022/10/13 05:37:38;;;;;;;19.50;8.65;;;11.80;99.90;;;;;;5054181;28;20467;-71
2022/10/13 05:40:04;;;;;;;16.70;8.10;;;11.90;99.90;;;;;;5054202;28;20478;-72
2022/10/13 05:42:30;;;;;;;19.25;7.90;;;11.90;99.90;;;;;;5052813;28;20498;-72
2022/10/13 05:44:56;;;;;;;19.17;8.68;;;11.90;99.90;;;;;;5053820;28;20417;-71
2022/10/13 05:47:26;;;;;;;17.67;8.57;;;11.90;99.90;;;;;;5054093;28;20025;-72
2022/10/13 05:49:53;;;;;;;17.88;8.50;;;11.90;99.90;;;;;;5053888;28;20037;-72
2022/10/13 05:52:21;;;;;;;14.18;8.35;;;12.00;99.90;;;;;;5054185;28;20086;-72
2022/10/13 05:54:51;;;;;;;21.52;8.93;;;12.00;99.90;;;;;;5053627;28;20021;-71
2022/10/13 05:57:23;;;;;;;15.10;8.02;;;11.90;99.90;;;;;;5053461;28;20048;-72
2022/10/13 05:59:54;;;;;;;20.73;9.48;;;11.90;99.90;;;;;;5053905;28;20051;-71
2022/10/13 06:02:24;;;;;;;23.13;9.45;;;11.90;99.90;;;;;;5053912;28;20108;-71
2022/10/13 06:04:52;;;;;;;20.55;9.57;;;11.90;99.90;;;;;;5053634;28;20101;-71
2022/10/13 06:07:18;;;;;;;19.08;9.55;;;11.90;99.90;;;;;;5052506;28;20037;-71
2022/10/13 06:09:44;;;;;;;22.88;10.43;;;11.90;99.90;;;;;;5053349;28;20025;-71
2022/10/13 06:12:10;;;;;;;19.02;9.70;;;12.00;99.90;;;;;;5053227;28;20041;-71
2022/10/13 06:14:36;;;;;;;21.73;9.18;;;12.00;99.90;;;;;;5053287;28;20025;-71
2022/10/13 06:17:01;;;;;;;20.08;9.70;;;12.10;99.90;;;;;;5053162;28;20481;-71
2022/10/13 06:19:27;;;;;;;34.83;15.07;;;12.10;99.90;;;;;;5068832;28;20029;-72
2022/10/13 06:21:53;;;;;;;25.55;12.15;;;12.10;99.90;;;;;;5053241;28;20036;-72
2022/10/13 06:24:18;;;;;;;21.75;10.57;;;12.10;99.90;;;;;;5053121;28;20519;-74
2022/10/13 06:26:44;;;;;;;25.02;13.93;;;12.30;99.90;;;;;;5052006;28;20052;-71
2022/10/13 06:29:10;;;;;;;26.80;11.52;;;12.20;99.90;;;;;;5053513;28;20507;-71
2022/10/13 06:31:35;;;;;;;22.52;12.25;;;12.20;99.90;;;;;;5053225;28;20040;-74
2022/10/13 06:34:01;;;;;;;31.00;13.63;;;12.20;99.90;;;;;;5052823;28;20527;-74
2022/10/13 06:36:27;;;;;;;23.40;11.02;;;12.20;99.90;;;;;;5068784;28;20279;-74
2022/10/13 06:38:53;;;;;;;21.50;9.80;;;12.30;99.90;;;;;;5053283;28;20029;-74
2022/10/13 06:41:19;;;;;;;21.25;11.00;;;12.30;99.90;;;;;;5053524;28;20025;-75
2022/10/13 06:43:44;;;;;;;26.58;12.75;;;12.40;99.90;;;;;;5053049;28;20454;-74
2022/10/13 06:46:11;;;;;;;24.23;10.00;;;12.40;99.90;;;;;;5053020;28;20033;-75
2022/10/13 06:48:37;;;;;;;18.08;9.10;;;12.40;99.90;;;;;;5052804;28;20033;-75
2022/10/13 06:51:08;;;;;;;22.83;9.93;;;12.40;99.90;;;;;;5052949;28;20064;-73
2022/10/13 06:53:34;;;;;;;19.20;9.70;;;12.40;99.90;;;;;;5068329;28;20021;-73
2022/10/13 06:56:01;;;;;;;21.48;9.70;;;12.40;99.90;;;;;;5053215;28;20545;-73
2022/10/13 06:58:27;;;;;;;24.00;9.93;;;12.50;99.90;;;;;;5053004;28;20095;-73
2022/10/13 07:00:53;;;;;;;22.75;10.45;;;12.50;99.90;;;;;;5068399;28;20021;-74
2022/10/13 07:03:20;;;;;;;21.67;9.82;;;12.50;99.90;;;;;;5051406;28;20098;-76
2022/10/13 07:05:46;;;;;;;16.50;9.27;;;12.50;99.90;;;;;;5052018;28;20431;-73
2022/10/13 07:08:12;;;;;;;21.13;10.13;;;12.60;99.90;;;;;;5053040;28;20037;-72
2022/10/13 07:10:39;;;;;;;15.32;9.52;;;12.60;99.90;;;;;;5051194;28;20096;-73
2022/10/13 07:13:05;;;;;;;26.98;10.45;;;12.60;99.90;;;;;;5067634;28;20440;-75
2022/10/13 07:15:31;;;;;;;17.67;9.48;;;12.70;99.90;;;;;;5052197;28;20037;-75
2022/10/13 07:17:57;;;;;;;21.98;9.88;;;12.70;99.90;;;;;;5052417;28;20074;-76
2022/10/13 07:20:23;;;;;;;21.55;10.95;;;12.70;99.90;;;;;;5052666;28;20025;-76
2022/10/13 07:22:51;;;;;;;21.80;10.02;;;12.80;99.90;;;;;;5052553;28;20021;-74
2022/10/13 07:25:17;;;;;;;19.00;10.07;;;12.70;99.90;;;;;;5052037;28;20041;-76
2022/10/13 07:27:43;;;;;;;23.10;10.25;;;12.80;99.90;;;;;;5051903;28;20424;-77
2022/10/13 07:30:09;;;;;;;24.15;11.27;;;12.80;99.90;;;;;;5051335;28;20029;-74
2022/10/13 07:32:35;;;;;;;24.65;10.88;;;12.90;99.90;;;;;;5052085;28;20031;-76
2022/10/13 07:35:02;;;;;;;21.77;9.05;;;12.90;99.90;;;;;;5068209;28;20118;-78
2022/10/13 07:37:28;;;;;;;19.15;10.00;;;13.00;99.90;;;;;;5067753;28;20036;-75
2022/10/13 07:39:53;;;;;;;21.13;10.90;;;13.10;99.90;;;;;;5051135;28;20029;-77
2022/10/13 07:42:19;;;;;;;27.92;11.98;;;13.20;99.90;;;;;;5051785;28;20040;-75
2022/10/13 07:44:45;;;;;;;24.23;10.10;;;13.20;99.90;;;;;;5051846;28;20021;-75
2022/10/13 07:47:10;;;;;;;23.30;10.25;;;13.30;99.90;;;;;;5052384;28;20323;-75
2022/10/13 07:49:36;;;;;;;23.55;9.95;;;13.40;99.90;;;;;;5051913;28;20108;-74
2022/10/13 07:52:02;;;;;;;25.38;9.95;;;13.40;99.90;;;;;;5067482;28;20033;-76
2022/10/13 07:54:28;;;;;;;18.88;9.05;;;13.50;99.90;;;;;;5052225;28;20033;-77
2022/10/13 07:56:54;;;;;;;19.88;10.00;;;13.60;99.90;;;;;;5051537;28;20421;-74
2022/10/13 07:59:20;;;;;;;21.95;9.88;;;13.60;99.90;;;;;;5052087;28;20313;-73
2022/10/13 08:01:47;;;;;;;28.75;10.88;;;13.70;99.90;;;;;;5051308;28;20471;-74
2022/10/13 08:04:13;;;;;;;33.08;16.30;;;13.70;99.90;;;;;;5051343;28;20116;-74
2022/10/13 08:06:39;;;;;;;35.15;15.48;;;13.90;99.90;;;;;;5050070;28;20256;-73
2022/10/13 08:09:04;;;;;;;21.33;10.55;;;13.80;99.90;;;;;;5051064;28;20078;-75
2022/10/13 08:11:30;;;;;;;18.25;10.30;;;13.80;99.90;;;;;;5049757;28;20041;-74
2022/10/13 08:13:59;;;;;;;22.38;9.85;;;13.80;99.90;;;;;;5051425;28;20036;-73
2022/10/13 08:16:30;;;;;;;18.73;9.15;;;13.90;99.90;;;;;;5066419;28;20029;-72
2022/10/13 08:18:57;;;;;;;18.98;8.65;;;14.00;99.90;;;;;;5050772;28;20029;-72
2022/10/13 08:21:27;;;;;;;25.80;9.18;;;14.10;99.90;;;;;;5051070;28;20041;-75
2022/10/13 08:23:52;;;;;;;20.90;9.25;;;14.20;99.90;;;;;;5066127;28;20032;-75
2022/10/13 08:26:22;;;;;;;20.70;9.23;;;14.20;99.90;;;;;;5051168;28;20032;-72
2022/10/13 08:28:47;;;;;;;21.25;10.32;;;14.40;99.90;;;;;;5050851;28;20061;-73
2022/10/13 08:31:13;;;;;;;15.77;9.02;;;14.50;99.90;;;;;;5066476;28;20037;-75
2022/10/13 08:33:40;;;;;;;18.77;10.02;;;14.60;99.80;;;;;;5050840;28;20128;-74
2022/10/13 08:36:06;;;;;;;16.20;8.40;;;14.80;99.70;;;;;;5050590;28;20383;-73
2022/10/13 08:38:32;;;;;;;21.17;8.43;;;15.00;99.50;;;;;;5050937;28;20095;-75
2022/10/13 08:40:58;;;;;;;18.02;9.15;;;15.10;99.50;;;;;;5051128;28;20103;-71
2022/10/13 08:43:24;;;;;;;14.85;7.88;;;15.30;99.30;;;;;;5066115;28;20033;-72
2022/10/13 08:45:54;;;;;;;25.02;9.73;;;15.40;99.00;;;;;;5050612;28;20120;-71
2022/10/13 08:48:41;;;;;;;23.10;10.35;;;15.50;98.90;;;;;;5050807;28;20029;-72
2022/10/13 08:51:07;;;;;;;25.92;9.50;;;15.60;98.70;;;;;;5050229;28;20040;-74
2022/10/13 08:53:39;;;;;;;18.65;7.68;;;15.60;98.50;;;;;;5065873;28;20028;-72
2022/10/13 08:56:18;;;;;;;17.00;8.02;;;15.60;98.30;;;;;;5050815;28;20021;-72
2022/10/13 08:58:45;;;;;;;16.75;7.97;;;15.60;98.40;;;;;;5050286;28;20025;-72
2022/10/13 09:01:15;;;;;;;16.52;7.53;;;15.70;98.30;;;;;;5065661;28;20073;-72
2022/10/13 09:03:47;;;;;;;16.08;7.82;;;15.80;98.20;;;;;;5050733;28;20245;-73
2022/10/13 09:06:27;;;;;;;16.38;7.90;;;15.90;98.30;;;;;;5050575;28;20025;-72
2022/10/13 09:09:25;;;;;;;14.18;7.45;;;16.20;97.90;;;;;;5050697;28;20033;-73
2022/10/13 09:11:51;;;;;;;15.13;7.22;;;16.70;97.60;;;;;;5016793;28;20475;-72
2022/10/13 09:14:22;;;;;;;17.35;7.72;;;17.50;97.50;;;;;;5050334;28;20071;-72
2022/10/13 09:16:50;;;;;;;15.07;6.95;;;18.30;97.00;;;;;;5049927;28;20374;-72
2022/10/13 09:19:29;;;;;;;13.00;7.20;;;19.00;96.50;;;;;;5050048;28;20355;-72
2022/10/13 09:22:12;;;;;;;21.15;8.35;;;19.50;95.50;;;;;;5049901;28;20362;-72
2022/10/13 09:24:38;;;;;;;19.95;6.85;;;19.90;94.80;;;;;;5049732;28;20052;-72
2022/10/13 09:27:10;;;;;;;21.23;7.53;;;19.90;94.00;;;;;;5050100;28;20036;-70
2022/10/13 09:29:36;;;;;;;18.65;7.35;;;19.60;93.30;;;;;;5049986;28;20029;-75
2022/10/13 09:32:14;;;;;;;16.15;6.93;;;19.10;92.80;;;;;;5050638;28;20402;-72
2022/10/13 09:34:40;;;;;;;16.35;6.85;;;19.10;93.80;;;;;;5050005;28;20040;-70
2022/10/13 09:37:24;;;;;;;10.85;5.80;;;18.90;94.00;;;;;;5050063;28;20049;-72
2022/10/13 09:40:10;;;;;;;14.90;6.85;;;19.10;93.90;;;;;;5050137;28;20033;-71
2022/10/13 09:42:36;;;;;;;14.45;6.63;;;19.20;93.50;;;;;;5065670;28;20037;-71
2022/10/13 09:45:17;;;;;;;12.48;6.00;;;19.20;93.90;;;;;;5049791;28;20033;-72
2022/10/13 09:47:55;;;;;;;18.98;6.25;;;19.30;93.60;;;;;;5049763;28;20570;-74
2022/10/13 09:50:30;;;;;;;13.73;7.07;;;20.20;93.20;;;;;;5065722;28;20029;-72
2022/10/13 09:53:21;;;;;;;13.32;5.90;;;20.70;92.00;;;;;;5051610;28;20402;-72
2022/10/13 09:55:48;;;;;;;16.83;6.15;;;21.00;92.40;;;;;;5053428;28;20477;-72
2022/10/13 09:58:23;;;;;;;18.35;7.15;;;21.40;91.80;;;;;;5053679;28;20036;-73
2022/10/13 10:00:51;;;;;;;12.80;5.95;;;22.00;91.80;;;;;;5053230;28;20448;-71
2022/10/13 10:03:31;;;;;;;9.82;5.43;;;22.00;90.70;;;;;;5053277;28;20435;-73
2022/10/13 10:06:01;;;;;;;17.52;6.90;;;22.00;90.10;;;;;;5053263;28;20487;-69
2022/10/13 10:08:56;;;;;;;12.50;5.60;;;22.30;89.60;;;;;;5052925;28;20108;-71
2022/10/13 10:11:28;;;;;;;10.98;5.30;;;22.90;88.80;;;;;;5053478;28;20094;-74
2022/10/13 10:13:54;;;;;;;9.25;5.32;;;22.90;88.30;;;;;;5053056;28;20041;-72
2022/10/13 10:16:38;;;;;;;13.02;5.82;;;23.10;86.00;;;;;;5053046;28;20029;-72
2022/10/13 10:19:15;;;;;;;9.18;4.93;;;22.80;85.10;;;;;;5053118;28;20032;-72
2022/10/13 10:21:53;;;;;;;16.08;5.65;;;23.00;86.60;;;;;;5053100;28;20027;-73
2022/10/13 10:24:23;;;;;;;;;;;22.70;83.80;;;;;;5053606;28;20083;-72
2022/10/13 10:27:08;;;;;;;9.15;4.82;;;22.60;85.10;;;;;;5053052;28;19915;-73
2022/10/13 10:29:57;;;;;;;15.40;5.35;;;22.50;84.40;;;;;;5052892;28;20025;-72
2022/10/13 10:32:50;;;;;;;7.65;4.95;;;22.80;86.50;;;;;;5052922;28;20316;-72
2022/10/13 10:35:38;;;;;;;12.73;5.15;;;22.90;82.50;;;;;;5068729;28;20045;-72
2022/10/13 10:38:35;;;;;;;7.97;4.57;;;23.20;83.70;;;;;;5052815;28;20347;-72
2022/10/13 10:41:30;;;;;;;14.02;5.20;;;23.20;82.60;;;;;;5027819;28;20036;-74
2022/10/13 10:44:11;;;;;;;10.48;4.80;;;23.50;83.20;;;;;;5052620;28;20049;-75
2022/10/13 10:46:48;;;;;;;13.45;5.47;;;23.60;81.50;;;;;;5068580;28;20032;-75
2022/10/13 10:49:30;;;;;;;17.40;5.75;;;23.60;82.40;;;;;;5052741;28;20141;-77
2022/10/13 10:51:58;;;;;;;16.42;8.23;;;23.60;81.10;;;;;;5052296;28;20025;-73
2022/10/13 10:54:39;;;;;;;9.57;5.30;;;23.60;80.10;;;;;;5052520;28;20048;-74
2022/10/13 10:57:08;;;;;;;9.23;5.45;;;24.00;82.80;;;;;;5052233;28;20033;-75
2022/10/13 11:00:06;;;;;;;11.98;5.60;;;24.60;80.90;;;;;;5052335;28;20032;-74
2022/10/13 11:02:53;;;;;;;13.95;4.85;;;25.30;78.10;;;;;;5051931;28;20029;-73
2022/10/13 11:05:19;;;;;;;11.77;4.83;;;26.10;76.80;;;;;;5051741;28;20067;-75
2022/10/13 11:07:45;;;;;;;10.35;5.07;;;26.40;75.80;;;;;;5067675;28;20117;-74
2022/10/13 11:10:15;;;;;;;11.10;5.18;;;26.30;71.20;;;;;;5051799;28;20536;-74
2022/10/13 11:12:49;;;;;;;10.82;5.05;;;25.80;73.20;;;;;;5051822;28;20037;-76
2022/10/13 11:15:27;;;;;;;11.60;5.18;;;25.50;73.10;;;;;;5051695;28;20055;-76
2022/10/13 11:17:53;;;;;;;10.55;4.50;;;24.60;74.00;;;;;;5051943;28;20021;-75
2022/10/13 11:20:19;;;;;;;11.18;4.75;;;24.20;73.90;;;;;;5052033;28;20347;-72
2022/10/13 11:22:56;;;;;;;11.52;4.55;;;24.00;75.00;;;;;;5051734;28;20124;-72
2022/10/13 11:25:38;;;;;;;10.80;4.55;;;23.80;75.40;;;;;;5051981;28;20033;-72
2022/10/13 11:28:22;;;;;;;13.98;4.97;;;23.60;75.50;;;;;;5051757;28;20044;-71
2022/10/13 11:31:04;;;;;;;14.32;4.90;;;23.10;76.70;;;;;;5051561;28;20052;-72
2022/10/13 11:33:39;;;;;;;13.32;4.63;;;22.80;77.40;;;;;;5051435;28;20458;-72
2022/10/13 11:36:38;;;;;;;15.10;5.40;;;22.60;77.90;;;;;;5051478;28;20037;-74
2022/10/13 11:39:19;;;;;;;10.57;4.47;;;22.40;78.40;;;;;;5066816;28;20468;-73
2022/10/13 11:42:11;;;;;;;14.98;5.50;;;22.10;78.80;;;;;;5051239;28;20040;-72
2022/10/13 11:44:54;;;;;;;8.38;4.90;;;21.90;79.50;;;;;;5043315;28;20052;-71
2022/10/13 11:47:53;;;;;;;16.73;5.25;;;21.80;79.70;;;;;;5051452;28;20362;-73
2022/10/13 11:50:47;;;;;;;12.18;5.50;;;21.60;80.00;;;;;;5066714;28;20037;-73
2022/10/13 11:53:26;;;;;;;15.48;4.60;;;21.20;81.10;;;;;;5051593;28;20017;-72
2022/10/13 11:55:56;;;;;;;10.45;5.10;;;21.40;81.30;;;;;;5051359;28;20049;-72
2022/10/13 11:58:24;;;;;;;14.93;4.35;;;21.30;81.20;;;;;;5051270;28;20037;-72
2022/10/13 12:00:49;;;;;;;;;;;21.20;81.30;;;;;;5051329;28;20459;-74
2022/10/13 12:03:23;;;;;;;15.45;5.35;;;21.20;81.70;;;;;;5051017;28;20389;-73
2022/10/13 12:05:49;;;;;;;8.63;4.47;;;21.20;82.30;;;;;;5050920;28;20449;-72
2022/10/13 12:08:17;;;;;;;12.23;4.60;;;21.10;82.20;;;;;;5050354;28;20025;-73
2022/10/13 12:10:43;;;;;;;15.20;4.40;;;21.20;82.30;;;;;;5049923;28;20386;-74
2022/10/13 12:13:30;;;;;;;12.07;5.05;;;21.10;81.80;;;;;;5050811;28;20048;-73
2022/10/13 12:16:06;;;;;;;11.57;4.60;;;21.10;82.10;;;;;;5050265;28;20033;-75
2022/10/13 12:18:37;;;;;;;15.48;5.05;;;21.10;82.00;;;;;;5050723;28;20033;-74
2022/10/13 12:21:11;;;;;;;11.32;4.72;;;20.80;82.80;;;;;;5050944;28;20446;-73
2022/10/13 12:23:38;;;;;;;12.63;4.60;;;20.80;82.70;;;;;;5066281;28;20075;-73
2022/10/13 12:26:04;;;;;;;9.60;4.78;;;20.60;83.20;;;;;;5051379;28;20100;-72
2022/10/13 12:28:53;;;;;;;10.82;5.38;;;20.50;84.10;;;;;;5050849;28;20450;-74
2022/10/13 12:31:23;;;;;;;8.82;4.90;;;20.40;83.80;;;;;;5050744;28;20068;-75
2022/10/13 12:33:54;;;;;;;12.32;5.07;;;20.20;84.40;;;;;;5066043;28;20348;-74
2022/10/13 12:36:31;;;;;;;13.07;4.82;;;20.10;85.00;;;;;;5050351;28;20048;-75
2022/10/13 12:39:04;;;;;;;11.93;4.87;;;20.10;85.40;;;;;;5050306;28;20032;-75
2022/10/13 12:41:33;;;;;;;16.50;4.65;;;20.30;85.30;;;;;;5050283;28;20040;-74
2022/10/13 12:43:59;;;;;;;11.60;4.80;;;20.40;85.30;;;;;;5050606;28;20036;-71
2022/10/13 12:46:40;;;;;;;9.77;5.32;;;20.50;84.90;;;;;;5050195;28;20024;-74
2022/10/13 12:49:11;;;;;;;11.07;4.38;;;20.50;84.80;;;;;;5050222;28;20467;-73
2022/10/13 12:51:38;;;;;;;13.55;5.10;;;20.50;84.80;;;;;;5049982;28;20033;-73
2022/10/13 12:54:14;;;;;;;9.68;4.20;;;20.40;85.00;;;;;;5050065;28;20029;-72
2022/10/13 12:56:41;;;;;;;8.98;4.05;;;20.40;85.60;;;;;;5050417;28;20039;-73